Time;durP1;ratioP1;P1;durP2;ratioP2;P2;SDS_P1;SDS_P2;PMS_P1;PMS_P2;Temp;Humidity;BMP_temperature;BMP_pressure;BME280_temperature;BME280_humidity;BME280_pressure;Samples;Min_cycle;Max_cycle;Signal;HPM_P1;HPM_P2
2022/04/18 00:00:53;;;;;;;0.60;0.60;;;;;;;12.18;39.47;94726.06;5029213;28;20464;-55
2022/04/18 00:03:20;;;;;;;0.70;0.60;;;;;;;12.25;39.64;94716.03;5029672;28;20501;-53
2022/04/18 00:05:47;;;;;;;0.83;0.70;;;;;;;12.37;39.71;94729.63;5027501;28;21005;-54
2022/04/18 00:08:14;;;;;;;1.17;1.00;;;;;;;12.30;39.49;94717.88;5029647;28;20837;-51
2022/04/18 00:10:41;;;;;;;0.60;0.60;;;;;;;12.52;38.90;94726.19;5028947;28;20824;-53
2022/04/18 00:13:08;;;;;;;3.10;0.80;;;;;;;12.52;38.62;94697.28;5028986;28;21059;-55
2022/04/18 00:15:35;;;;;;;1.00;0.90;;;;;;;12.77;38.78;94715.50;5029459;28;20517;-52
2022/04/18 00:18:02;;;;;;;1.10;0.67;;;;;;;12.72;38.79;94718.94;5029374;28;20812;-55
2022/04/18 00:20:29;;;;;;;1.13;0.90;;;;;;;12.41;37.33;94709.66;5027193;28;20471;-50
2022/04/18 00:22:56;;;;;;;0.70;0.70;;;;;;;12.24;37.35;94710.00;5028611;28;20435;-54
2022/04/18 00:25:23;;;;;;;0.70;0.60;;;;;;;12.21;37.54;94715.00;5029044;28;20447;-55
2022/04/18 00:27:50;;;;;;;0.70;0.70;;;;;;;11.82;38.00;94711.47;5028736;28;20440;-55
2022/04/18 00:30:17;;;;;;;2.40;1.00;;;;;;;12.02;38.18;94714.03;5028368;28;20862;-59
2022/04/18 00:32:44;;;;;;;2.33;0.80;;;;;;;11.49;38.95;94712.84;5029780;28;20448;-57
2022/04/18 00:35:12;;;;;;;1.30;1.02;;;;;;;11.21;39.43;94689.78;5028867;28;20444;-54
2022/04/18 00:37:40;;;;;;;1.07;0.80;;;;;;;11.57;39.15;94708.88;5029672;28;20209;-55
2022/04/18 00:40:08;;;;;;;0.93;0.82;;;;;;;11.52;39.51;94701.00;5028462;28;21094;-57
2022/04/18 00:42:35;;;;;;;1.33;0.75;;;;;;;11.94;38.79;94709.31;5029725;28;20182;-57
2022/04/18 00:45:02;;;;;;;1.10;0.80;;;;;;;12.05;39.32;94716.13;5028565;28;20197;-54
2022/04/18 00:47:29;;;;;;;1.00;0.80;;;;;;;12.12;39.28;94703.47;5029177;28;20185;-56
2022/04/18 00:49:57;;;;;;;1.03;0.93;;;;;;;12.18;39.29;94702.41;5028200;28;20255;-54
2022/04/18 00:52:26;;;;;;;1.17;1.00;;;;;;;12.34;39.25;94692.59;5028113;28;20538;-53
2022/04/18 00:54:54;;;;;;;1.30;1.10;;;;;;;12.48;39.19;94702.25;5029191;28;20482;-54
2022/04/18 00:57:23;;;;;;;3.57;1.10;;;;;;;12.44;39.55;94697.81;5027748;28;20444;-53
2022/04/18 00:59:50;;;;;;;1.30;0.93;;;;;;;12.41;39.05;94696.50;5028319;28;20440;-52
2022/04/18 01:02:17;;;;;;;2.53;2.33;;;;;;;12.00;38.50;94695.13;5028654;28;20439;-56
2022/04/18 01:04:44;;;;;;;3.43;2.80;;;;;;;12.01;38.09;94694.88;5028663;28;20448;-55
2022/04/18 01:07:12;;;;;;;4.90;2.10;;;;;;;11.70;39.10;94688.13;5027580;28;20443;-52
2022/04/18 01:09:39;;;;;;;2.27;1.50;;;;;;;12.12;38.95;94690.34;5027364;28;20960;-54
2022/04/18 01:12:06;;;;;;;1.77;1.10;;;;;;;12.03;38.97;94689.34;5027248;28;20440;-55
2022/04/18 01:14:59;;;;;;;1.50;1.20;;;;;;;12.24;39.10;94693.47;5026824;28;20455;-55
2022/04/18 01:17:45;;;;;;;1.23;1.10;;;;;;;12.11;39.16;94683.53;5028195;28;20841;-55
2022/04/18 01:20:34;;;;;;;3.75;1.38;;;;;;;12.35;38.75;94684.47;5026847;28;20462;-51
2022/04/18 01:23:16;;;;;;;1.60;1.10;;;;;;;12.23;38.15;94686.63;5027512;28;20201;-53
2022/04/18 01:28:58;;;;;;;1.50;1.27;;;;;;;12.11;38.60;94678.28;5027221;28;20874;-54
2022/04/18 01:31:28;;;;;;;1.63;1.53;;;;;;;12.24;38.07;94677.69;5026852;28;20472;-59
2022/04/18 01:33:56;;;;;;;1.50;1.40;;;;;;;12.16;38.70;94675.63;5028100;28;20891;-52
2022/04/18 01:36:26;;;;;;;1.50;1.30;;;;;;;11.76;38.37;94670.53;5030531;28;20442;-52
2022/04/18 01:38:54;;;;;;;2.43;1.50;;;;;;;12.00;37.79;94671.50;5030997;28;20209;-56
2022/04/18 01:41:22;;;;;;;1.83;1.30;;;;;;;11.92;37.95;94648.41;5030363;28;20455;-53
2022/04/18 01:43:50;;;;;;;1.50;1.30;;;;;;;12.17;38.05;94658.84;5030811;28;20479;-54
2022/04/18 01:46:18;;;;;;;2.07;1.50;;;;;;;12.17;38.35;94653.56;5031594;28;20193;-54
2022/04/18 01:48:51;;;;;;;1.90;1.48;;;;;;;11.94;37.75;94662.06;5030927;28;20583;-56
2022/04/18 01:51:19;;;;;;;1.60;1.33;;;;;;;12.12;38.10;94664.09;5031688;28;20224;-54
2022/04/18 01:53:47;;;;;;;1.47;1.37;;;;;;;12.24;38.09;94651.44;5031848;28;20883;-54
2022/04/18 01:56:15;;;;;;;2.40;1.10;;;;;;;11.78;38.20;94652.69;5030236;28;20448;-52
2022/04/18 01:58:42;;;;;;;1.20;1.10;;;;;;;12.02;37.87;94648.38;5030611;28;20612;-52
2022/04/18 02:01:10;;;;;;;1.40;1.30;;;;;;;11.75;38.20;94643.50;5029721;28;20869;-54
2022/04/18 02:03:41;;;;;;;1.33;1.20;;;;;;;12.18;37.83;94636.75;5030464;28;20551;-55
2022/04/18 02:06:09;;;;;;;1.42;1.10;;;;;;;12.27;37.63;94635.13;5029098;28;20440;-50
2022/04/18 02:08:38;;;;;;;3.63;1.60;;;;;;;12.17;37.79;94638.59;5030473;28;20245;-49
2022/04/18 02:11:06;;;;;;;2.40;2.00;;;;;;;11.77;38.17;94645.88;5029629;28;20448;-54
2022/04/18 02:13:36;;;;;;;1.90;1.60;;;;;;;11.95;38.25;94632.91;5030444;28;20444;-52
2022/04/18 02:16:06;;;;;;;2.00;1.70;;;;;;;12.07;37.76;94632.59;5029646;28;20464;-51
2022/04/18 02:18:34;;;;;;;1.77;1.30;;;;;;;12.14;37.47;94631.25;5030135;28;20272;-54
2022/04/18 02:21:01;;;;;;;3.10;1.70;;;;;;;12.19;38.04;94627.81;5029508;28;20590;-48
2022/04/18 02:23:28;;;;;;;1.60;1.40;;;;;;;12.13;37.81;94621.03;5030287;28;20820;-53
2022/04/18 02:25:55;;;;;;;2.57;1.60;;;;;;;12.24;37.50;94627.78;5029659;28;21037;-51
2022/04/18 02:28:22;;;;;;;2.07;1.50;;;;;;;11.84;37.86;94628.00;5030219;28;20530;-51
2022/04/18 02:30:54;;;;;;;2.13;1.50;;;;;;;11.84;38.46;94620.13;5029011;28;21089;-56
2022/04/18 02:33:20;;;;;;;3.67;1.40;;;;;;;11.94;37.85;94630.56;5029815;28;20459;-53
2022/04/18 02:35:49;;;;;;;3.20;1.90;;;;;;;11.89;38.45;94630.59;5029505;28;20497;-54
2022/04/18 02:38:17;;;;;;;2.90;2.20;;;;;;;11.75;38.52;94626.97;5030273;28;20204;-55
2022/04/18 02:40:46;;;;;;;3.20;2.30;;;;;;;11.68;38.94;94626.47;5029108;28;20439;-52
2022/04/18 02:43:13;;;;;;;3.40;2.10;;;;;;;11.66;39.19;94618.09;5029740;28;20451;-54
2022/04/18 02:45:46;;;;;;;2.20;1.33;;;;;;;11.50;38.78;94619.94;5028552;28;20468;-55
2022/04/18 02:48:19;;;;;;;2.80;1.30;;;;;;;11.77;38.60;94624.88;5029811;28;20343;-53
2022/04/18 02:50:49;;;;;;;2.30;1.10;;;;;;;12.05;38.63;94622.38;5028426;28;20927;-56
2022/04/18 02:53:21;;;;;;;1.10;0.90;;;;;;;11.86;38.73;94602.25;5029417;28;20527;-54
2022/04/18 02:55:56;;;;;;;1.13;0.90;;;;;;;11.90;38.58;94613.78;5030337;28;21004;-49
2022/04/18 02:58:23;;;;;;;1.13;0.93;;;;;;;11.81;38.61;94625.88;5029383;28;20986;-53
2022/04/18 03:00:51;;;;;;;2.50;1.27;;;;;;;11.76;38.77;94618.03;5028794;28;20456;-58
2022/04/18 03:03:18;;;;;;;1.45;1.20;;;;;;;11.70;38.81;94613.84;5029473;28;20510;-56
2022/04/18 03:05:47;;;;;;;1.03;0.90;;;;;;;11.53;39.12;94618.63;5028608;28;20680;-55
2022/04/18 03:08:14;;;;;;;2.13;1.20;;;;;;;11.59;39.31;94622.78;5029317;28;20448;-54
2022/04/18 03:13:29;;;;;;;1.07;0.97;;;;;;;11.48;39.04;94613.41;5029305;28;20267;-53
2022/04/18 03:15:57;;;;;;;1.20;1.10;;;;;;;11.49;38.94;94609.72;5028949;28;20431;-54
2022/04/18 03:18:26;;;;;;;1.10;0.80;;;;;;;11.20;39.50;94615.53;5028646;28;20282;-55
2022/04/18 03:20:54;;;;;;;0.50;0.50;;;;;;;11.11;39.69;94595.41;5028397;28;20284;-51
2022/04/18 03:23:21;;;;;;;0.57;0.57;;;;;;;11.50;38.93;94612.06;5029087;28;20207;-52
2022/04/18 03:26:08;;;;;;;1.03;0.80;;;;;;;11.27;39.21;94614.50;5029383;28;20208;-56
2022/04/18 03:28:49;;;;;;;1.65;1.13;;;;;;;11.19;40.00;94624.47;5028318;28;20451;-54
2022/04/18 03:31:15;;;;;;;2.72;1.13;;;;;;;11.03;42.30;94614.28;5028648;28;20197;-55
2022/04/18 03:33:43;;;;;;;1.13;0.90;;;;;;;10.96;40.75;94609.31;5030157;28;20201;-56
2022/04/18 03:41:44;;;;;;;1.27;1.05;;;;;;;11.42;40.74;94615.25;5027375;28;20205;-56
2022/04/18 03:44:12;;;;;;;2.53;1.08;;;;;;;11.44;40.04;94612.34;5028499;28;20286;-57
2022/04/18 03:46:40;;;;;;;1.75;1.35;;;;;;;11.50;39.91;94608.66;5028116;28;20628;-51
2022/04/18 03:49:06;;;;;;;3.57;1.70;;;;;;;11.55;39.91;94608.66;5029811;28;20263;-55
2022/04/18 03:51:36;;;;;;;2.03;1.60;;;;;;;11.08;39.69;94612.44;5027885;28;20534;-55
2022/04/18 03:54:05;;;;;;;1.15;1.05;;;;;;;11.41;40.17;94605.00;5028356;28;20201;-57
2022/04/18 03:56:35;;;;;;;1.90;1.52;;;;;;;11.37;39.54;94604.00;5027911;28;20208;-54
2022/04/18 03:59:07;;;;;;;1.93;1.50;;;;;;;11.55;39.97;94619.16;5029208;28;20235;-53
2022/04/18 04:01:52;;;;;;;1.48;1.38;;;;;;;11.57;40.04;94611.81;5026577;28;20533;-49
2022/04/18 04:04:19;;;;;;;1.50;1.20;;;;;;;11.52;39.59;94609.16;5027064;28;20216;-56
2022/04/18 04:06:47;;;;;;;2.97;2.17;;;;;;;11.63;39.47;94623.81;5026498;28;20193;-56
2022/04/18 04:09:14;;;;;;;2.53;1.80;;;;;;;11.54;40.03;94622.81;5027806;28;20280;-54
2022/04/18 04:11:41;;;;;;;2.90;1.38;;;;;;;11.65;39.36;94622.56;5029611;28;20197;-54
2022/04/18 04:14:08;;;;;;;2.53;1.50;;;;;;;11.56;39.74;94628.56;5028645;28;20205;-52
2022/04/18 04:16:35;;;;;;;2.30;1.73;;;;;;;11.40;40.08;94613.94;5028904;28;20578;-54
2022/04/18 04:19:03;;;;;;;3.25;2.35;;;;;;;11.43;40.07;94623.88;5027413;28;20208;-54
2022/04/18 04:21:29;;;;;;;2.65;2.00;;;;;;;11.49;40.26;94615.75;5028689;28;20181;-53
2022/04/18 04:23:58;;;;;;;4.15;2.38;;;;;;;11.33;40.34;94618.69;5027437;28;20209;-55
2022/04/18 04:26:37;;;;;;;3.90;2.60;;;;;;;11.42;40.58;94617.09;5026471;28;20576;-54
2022/04/18 04:29:05;;;;;;;6.28;2.50;;;;;;;11.63;39.77;94623.81;5027169;28;20201;-49
2022/04/18 04:32:01;;;;;;;3.65;2.50;;;;;;;11.59;40.12;94630.66;5021616;28;20212;-56
2022/04/18 04:34:31;;;;;;;6.15;3.55;;;;;;;11.34;40.45;94630.72;5027349;28;20213;-55
2022/04/18 04:37:17;;;;;;;4.65;3.05;;;;;;;11.04;40.73;94627.13;5028499;28;20231;-54
2022/04/18 04:39:49;;;;;;;3.92;2.40;;;;;;;11.08;40.59;94628.16;5025927;28;20288;-53
2022/04/18 04:42:17;;;;;;;3.55;2.90;;;;;;;11.09;40.40;94632.34;5027794;28;20682;-57
2022/04/18 04:44:45;;;;;;;6.78;3.85;;;;;;;11.48;40.86;94623.91;5027507;28;20208;-56
2022/04/18 04:47:20;;;;;;;6.40;5.00;;;;;;;11.73;39.96;94629.84;5028082;28;20200;-53
2022/04/18 04:49:47;;;;;;;6.50;5.20;;;;;;;11.83;40.31;94629.03;5027345;28;20252;-57
2022/04/18 04:52:21;;;;;;;5.72;3.15;;;;;;;11.79;39.02;94622.75;5027467;28;20209;-52
2022/04/18 04:54:49;;;;;;;4.00;2.87;;;;;;;11.08;40.66;94632.63;5027226;28;20239;-56
2022/04/18 04:57:27;;;;;;;4.78;3.33;;;;;;;11.40;39.64;94629.69;5029117;28;20974;-52
2022/04/18 05:00:29;;;;;;;8.65;4.50;;;;;;;11.19;40.20;94639.41;5028298;28;20374;-53
2022/04/18 05:03:15;;;;;;;6.63;4.30;;;;;;;11.27;40.08;94638.09;5027563;28;20205;-51
2022/04/18 05:05:42;;;;;;;9.50;4.50;;;;;;;11.65;39.54;94637.50;5029144;28;20227;-57
2022/04/18 05:08:33;;;;;;;5.72;3.67;;;;;;;11.26;39.53;94639.94;5027890;28;20583;-54
2022/04/18 05:11:01;;;;;;;4.07;3.00;;;;;;;11.10;39.94;94631.31;5030875;28;20251;-55
2022/04/18 05:13:48;;;;;;;40.40;26.48;;;;;;;11.60;40.08;94627.78;5031498;28;20443;-55
2022/04/18 05:16:18;;;;;;;16.13;9.90;;;;;;;11.67;39.15;94630.94;5031343;28;20204;-54
2022/04/18 05:18:49;;;;;;;7.10;4.40;;;;;;;11.99;38.59;94643.66;5032942;28;20304;-55
2022/04/18 05:21:16;;;;;;;4.05;3.15;;;;;;;12.03;38.49;94642.06;5031074;28;20209;-48
2022/04/18 05:23:45;;;;;;;8.35;5.43;;;;;;;12.07;40.61;94632.59;5031288;28;20212;-56
2022/04/18 05:26:12;;;;;;;4.30;3.33;;;;;;;11.77;39.31;94640.63;5030708;28;20204;-56
2022/04/18 05:28:41;;;;;;;3.90;3.40;;;;;;;11.97;39.24;94635.28;5031130;28;20451;-51
2022/04/18 05:31:09;;;;;;;4.70;3.88;;;;;;;11.65;38.91;94637.50;5029575;28;20220;-53
2022/04/18 05:33:38;;;;;;;4.90;3.25;;;;;;;11.91;38.21;94641.63;5028442;28;20284;-56
2022/04/18 05:36:10;;;;;;;3.83;3.25;;;;;;;11.84;38.32;94639.25;5028151;28;20770;-56
2022/04/18 05:38:37;;;;;;;3.78;3.00;;;;;;;11.92;38.25;94633.47;5028466;28;20209;-55
2022/04/18 05:41:10;;;;;;;4.15;2.58;;;;;;;12.23;38.46;94636.72;5029884;28;20251;-52
2022/04/18 05:43:38;;;;;;;3.83;2.70;;;;;;;11.98;37.84;94642.09;5030628;28;20208;-56
2022/04/18 05:46:07;;;;;;;4.15;2.47;;;;;;;11.81;38.31;94650.31;5030599;28;20217;-57
2022/04/18 05:48:35;;;;;;;2.95;2.42;;;;;;;11.72;38.76;94643.25;5030776;28;20211;-51
2022/04/18 05:51:02;;;;;;;5.63;3.55;;;;;;;12.38;37.63;94647.16;5030118;28;20225;-51
2022/04/18 05:53:29;;;;;;;3.47;2.85;;;;;;;12.48;37.49;94647.06;5030498;28;20774;-49
2022/04/18 05:56:14;;;;;;;5.00;3.40;;;;;;;12.57;37.35;94645.44;5031709;28;20204;-54
2022/04/18 05:58:51;;;;;;;4.50;3.17;;;;;;;12.18;37.38;94644.63;5030683;28;20201;-56
2022/04/18 06:01:30;;;;;;;4.35;3.13;;;;;;;12.37;37.94;94653.44;5031627;28;20563;-51
2022/04/18 06:04:02;;;;;;;4.47;3.47;;;;;;;12.68;37.14;94656.69;5030727;28;20296;-54
2022/04/18 06:06:29;;;;;;;4.72;2.83;;;;;;;12.49;37.29;94656.53;5030327;28;20212;-56
2022/04/18 06:08:56;;;;;;;3.67;3.00;;;;;;;12.35;37.60;94658.22;5030371;28;20197;-59
2022/04/18 06:11:27;;;;;;;5.33;3.43;;;;;;;12.67;37.46;94653.25;5029692;28;20546;-53
2022/04/18 06:14:08;;;;;;;4.68;2.80;;;;;;;12.60;37.33;94647.53;5030501;28;20459;-51
2022/04/18 06:16:40;;;;;;;2.60;2.33;;;;;;;12.64;36.76;94651.19;5030083;28;20602;-54
2022/04/18 06:19:08;;;;;;;2.77;2.50;;;;;;;12.62;36.64;94653.31;5030074;28;20456;-51
2022/04/18 06:21:35;;;;;;;3.07;2.43;;;;;;;12.31;37.25;94659.81;5028680;28;20436;-52
2022/04/18 06:24:04;;;;;;;5.13;4.00;;;;;;;12.82;36.84;94662.88;5030075;28;20482;-54
2022/04/18 06:26:39;;;;;;;5.30;3.50;;;;;;;13.00;36.44;94657.75;5029798;28;20240;-53
2022/04/18 06:29:06;;;;;;;4.07;3.37;;;;;;;12.98;36.65;94659.88;5029906;28;20455;-52
2022/04/18 06:31:39;;;;;;;5.13;3.47;;;;;;;12.60;36.86;94663.31;5029590;28;20570;-52
2022/04/18 06:34:06;;;;;;;2.43;2.13;;;;;;;12.54;36.61;94664.38;5030338;28;20444;-52
2022/04/18 06:36:37;;;;;;;3.33;2.40;;;;;;;12.76;37.04;94662.13;5029794;28;20440;-54
2022/04/18 06:39:24;;;;;;;3.58;2.88;;;;;;;12.81;36.84;94662.09;5030844;28;20506;-53
2022/04/18 06:42:04;;;;;;;2.70;2.30;;;;;;;12.64;36.40;94666.97;5030003;28;20197;-56
2022/04/18 06:44:41;;;;;;;3.00;2.27;;;;;;;12.36;37.26;94664.22;5029257;28;20197;-54
2022/04/18 06:47:10;;;;;;;2.60;2.30;;;;;;;12.34;37.56;94664.50;5029790;28;20983;-54
2022/04/18 06:49:55;;;;;;;2.35;2.15;;;;;;;12.36;37.36;94669.47;5030552;28;20546;-54
2022/04/18 06:52:44;;;;;;;4.07;2.40;;;;;;;12.67;37.12;94670.88;5030766;28;20183;-61
2022/04/18 06:56:58;;;;;;;3.25;2.22;;;;;;;12.37;37.10;94671.84;5031140;28;20431;-54
2022/04/18 06:58:31;;;;;;;3.00;2.70;;;;;;;12.24;37.82;94673.22;5029823;28;20331;-52
2022/04/18 07:00:59;;;;;;;3.15;2.67;;;;;;;12.73;37.58;94680.31;5029463;28;20440;-54
2022/04/18 07:03:26;;;;;;;3.73;2.60;;;;;;;12.92;36.82;94670.69;5029165;28;20675;-57
2022/04/18 07:05:54;;;;;;;5.03;3.20;;;;;;;12.85;37.29;94673.63;5028873;28;20442;-57
2022/04/18 07:08:20;;;;;;;4.57;2.55;;;;;;;12.79;37.41;94674.72;5029482;28;20790;-58
2022/04/18 07:10:50;;;;;;;4.00;2.70;;;;;;;12.87;37.03;94676.78;5028934;28;20231;-51
2022/04/18 07:13:17;;;;;;;2.73;2.20;;;;;;;12.93;36.81;94665.19;5029241;28;20448;-54
2022/04/18 07:15:47;;;;;;;3.67;2.93;;;;;;;12.71;37.40;94669.28;5029094;28;20443;-54
2022/04/18 07:18:16;;;;;;;3.70;2.97;;;;;;;12.68;37.78;94673.22;5029067;28;20986;-57
2022/04/18 07:20:43;;;;;;;3.73;2.83;;;;;;;12.64;37.49;94672.22;5028848;28;20451;-55
2022/04/18 07:23:13;;;;;;;7.70;3.10;;;;;;;12.75;38.08;94681.63;5029125;28;20452;-55
2022/04/18 07:25:57;;;;;;;3.07;2.47;;;;;;;12.81;37.22;94672.59;5012237;28;20919;-56
2022/04/18 07:28:32;;;;;;;4.10;2.50;;;;;;;12.72;37.18;94679.50;5029458;28;20448;-55
2022/04/18 07:31:00;;;;;;;3.97;2.40;;;;;;;12.23;37.73;94665.59;5028835;28;20224;-56
2022/04/18 07:33:27;;;;;;;3.80;2.73;;;;;;;12.37;38.14;94666.56;5028528;28;20481;-54
2022/04/18 07:35:55;;;;;;;4.75;2.65;;;;;;;12.46;37.79;94672.84;5028569;28;20450;-54
2022/04/18 07:41:09;;;;;;;4.28;2.58;;;;;;;12.77;37.19;94676.84;5028504;28;20208;-57
2022/04/18 07:43:41;;;;;;;4.75;2.55;;;;;;;12.93;37.04;94673.06;5028559;28;20251;-55
2022/04/18 07:46:10;;;;;;;4.00;2.65;;;;;;;12.78;37.11;94686.31;5028216;28;20200;-52
2022/04/18 07:48:38;;;;;;;4.07;2.50;;;;;;;12.40;37.23;94681.03;5028749;28;20201;-56
2022/04/18 07:53:52;;;;;;;3.90;3.28;;;;;;;12.49;37.23;94690.69;5028282;28;20446;-54
2022/04/18 07:56:20;;;;;;;7.40;3.17;;;;;;;12.63;37.68;94691.66;5029396;28;20199;-56
2022/04/18 07:58:47;;;;;;;4.77;3.30;;;;;;;12.66;37.38;94687.72;5028559;28;20436;-55
2022/04/18 08:01:22;;;;;;;3.50;2.90;;;;;;;12.45;37.32;94689.66;5028344;28;20431;-52
2022/04/18 08:03:49;;;;;;;4.57;3.30;;;;;;;12.32;37.83;94692.13;5028205;28;20451;-54
2022/04/18 08:06:17;;;;;;;4.83;3.00;;;;;;;12.29;38.41;94690.81;5027470;28;20432;-56
2022/04/18 08:08:53;;;;;;;3.40;2.60;;;;;;;12.18;38.45;94681.41;5028216;28;20448;-54
2022/04/18 08:11:20;;;;;;;2.90;2.07;;;;;;;11.43;39.01;94677.16;5027839;28;20548;-54
2022/04/18 08:13:51;;;;;;;5.23;3.00;;;;;;;12.16;38.18;94675.63;5028179;28;20465;-56
2022/04/18 08:16:36;;;;;;;5.90;3.40;;;;;;;12.26;38.32;94686.09;5029512;28;20450;-54
2022/04/18 08:19:33;;;;;;;4.03;2.70;;;;;;;12.27;37.77;94686.88;5029069;28;20539;-56
2022/04/18 08:22:00;;;;;;;5.53;2.77;;;;;;;11.97;38.00;94662.31;5027888;28;20459;-55
2022/04/18 08:24:29;;;;;;;4.38;3.10;;;;;;;12.58;37.42;94683.81;5027640;28;20970;-58
2022/04/18 08:27:31;;;;;;;3.95;2.70;;;;;;;12.55;37.39;94678.31;5029193;28;20688;-56
2022/04/18 08:30:08;;;;;;;4.97;2.33;;;;;;;12.57;37.27;94689.34;5027770;28;20208;-56
2022/04/18 08:32:58;;;;;;;4.32;2.70;;;;;;;12.01;37.87;94688.81;5025760;28;20511;-56
2022/04/18 08:35:26;;;;;;;2.90;2.20;;;;;;;12.29;37.07;94669.00;5027556;28;20220;-56
2022/04/18 08:37:53;;;;;;;3.40;2.10;;;;;;;12.28;37.42;94673.47;5027980;28;20534;-57
2022/04/18 08:40:42;;;;;;;4.40;2.80;;;;;;;12.65;37.31;94679.03;5028715;28;20208;-55
2022/04/18 08:43:11;;;;;;;3.25;2.30;;;;;;;12.59;37.26;94689.88;5027678;28;20235;-55
2022/04/18 08:45:38;;;;;;;3.65;2.33;;;;;;;12.41;37.10;94683.38;5030980;28;20220;-52
2022/04/18 08:53:39;;;;;;;4.28;2.72;;;;;;;12.33;37.22;94686.59;5031538;28;20490;-55
2022/04/18 08:56:06;;;;;;;5.10;2.60;;;;;;;12.49;36.90;94684.66;5031560;28;20719;-57
2022/04/18 08:58:35;;;;;;;5.47;2.03;;;;;;;12.27;36.35;94687.66;5032006;28;20444;-56
2022/04/18 09:01:04;;;;;;;6.43;2.70;;;;;;;12.55;36.57;94679.13;5031178;28;20455;-57
2022/04/18 09:03:54;;;;;;;10.33;3.30;;;;;;;12.88;36.61;94677.56;5031292;28;20879;-54
2022/04/18 09:06:38;;;;;;;3.40;2.10;;;;;;;12.72;36.29;94679.50;5031143;28;20811;-57
2022/04/18 09:09:11;;;;;;;2.00;1.30;;;;;;;12.43;36.06;94678.63;5031728;28;20442;-54
2022/04/18 09:11:40;;;;;;;4.53;2.27;;;;;;;12.52;35.92;94679.63;5030914;28;20522;-50
2022/04/18 09:14:15;;;;;;;2.47;1.70;;;;;;;12.48;35.92;94654.94;5031848;28;20451;-54
2022/04/18 09:16:48;;;;;;;4.90;2.03;;;;;;;12.75;36.28;94668.47;5031014;28;21001;-55
2022/04/18 09:19:47;;;;;;;3.63;2.37;;;;;;;13.12;35.92;94673.19;5020389;28;20621;-54
2022/04/18 09:22:19;;;;;;;4.33;2.80;;;;;;;12.99;35.92;94648.28;5031534;28;20539;-57
2022/04/18 09:24:54;;;;;;;3.10;2.20;;;;;;;13.15;36.11;94673.44;5031175;28;20436;-55
2022/04/18 09:27:29;;;;;;;1.97;1.50;;;;;;;12.55;36.07;94668.59;5031371;28;20475;-53
2022/04/18 09:30:08;;;;;;;2.20;1.20;;;;;;;12.79;35.57;94666.84;5030971;28;20452;-58
2022/04/18 09:32:55;;;;;;;2.50;1.20;;;;;;;12.66;35.94;94667.47;5030796;28;20498;-55
2022/04/18 09:35:30;;;;;;;3.87;1.57;;;;;;;12.73;35.76;94665.31;5030932;28;20506;-56
2022/04/18 09:38:02;;;;;;;2.25;1.45;;;;;;;13.07;35.46;94676.66;5031292;28;20440;-56
2022/04/18 09:40:50;;;;;;;1.83;1.27;;;;;;;13.11;35.72;94646.13;5020251;28;20210;-54
2022/04/18 09:43:22;;;;;;;2.50;1.50;;;;;;;13.25;35.26;94666.53;5031013;28;20779;-52
2022/04/18 09:45:52;;;;;;;2.70;1.60;;;;;;;13.02;34.94;94663.56;5031897;28;20973;-53
2022/04/18 09:48:23;;;;;;;5.43;2.23;;;;;;;13.21;35.32;94672.31;5030804;28;20455;-48
2022/04/18 09:51:00;;;;;;;4.93;1.73;;;;;;;13.37;34.83;94664.28;5030486;28;20566;-56
2022/04/18 09:53:44;;;;;;;2.20;1.73;;;;;;;12.85;36.02;94663.13;5031011;28;20439;-57
2022/04/18 09:56:15;;;;;;;3.17;1.73;;;;;;;12.88;35.80;94657.31;5031824;28;20547;-59
2022/04/18 09:58:43;;;;;;;4.43;1.60;;;;;;;12.93;35.69;94648.59;5032127;28;20455;-58
2022/04/18 10:01:32;;;;;;;5.10;2.30;;;;;;;12.97;35.58;94633.84;5030678;28;20448;-61
2022/04/18 10:04:00;;;;;;;5.27;1.30;;;;;;;12.75;35.92;94649.28;5031849;28;20440;-52
2022/04/18 10:06:28;;;;;;;4.10;1.40;;;;;;;12.96;35.74;94648.84;5031370;28;20538;-52
2022/04/18 10:08:55;;;;;;;2.80;1.90;;;;;;;12.94;36.06;94650.94;5031889;28;20958;-53
2022/04/18 10:11:23;;;;;;;2.80;1.20;;;;;;;13.49;35.39;94641.00;5031447;28;20491;-56
2022/04/18 10:13:50;;;;;;;1.37;1.20;;;;;;;13.48;34.94;94649.97;5031515;28;20450;-57
2022/04/18 10:16:19;;;;;;;3.00;1.27;;;;;;;13.48;34.89;94644.72;5031529;28;20550;-58
2022/04/18 10:18:52;;;;;;;2.00;1.27;;;;;;;13.68;34.58;94633.97;5031254;28;20472;-57
2022/04/18 10:21:31;;;;;;;5.03;1.50;;;;;;;13.93;33.81;94628.41;5030456;28;20459;-55
2022/04/18 10:24:19;;;;;;;1.70;1.33;;;;;;;13.84;33.75;94632.72;5031330;28;20491;-55
2022/04/18 10:27:25;;;;;;;3.47;1.40;;;;;;;14.09;33.46;94630.56;5031139;28;20451;-55
2022/04/18 10:29:54;;;;;;;3.57;1.87;;;;;;;14.05;34.10;94626.91;5030937;28;20536;-55
2022/04/18 10:32:26;;;;;;;3.60;2.60;;;;;;;13.75;34.58;94629.16;5030897;28;20482;-55
2022/04/18 10:34:59;;;;;;;3.23;2.20;;;;;;;13.58;34.27;94629.59;5031209;28;20448;-54
2022/04/18 10:37:28;;;;;;;4.33;2.10;;;;;;;13.34;33.84;94634.03;5031684;28;20460;-56
2022/04/18 10:40:07;;;;;;;2.23;1.70;;;;;;;13.11;34.36;94635.59;5030815;28;20446;-55
2022/04/18 10:42:36;;;;;;;2.50;2.00;;;;;;;13.08;35.15;94630.88;5031182;28;20428;-51
2022/04/18 10:45:17;;;;;;;5.60;2.80;;;;;;;13.40;35.21;94637.41;5030796;28;20452;-55
2022/04/18 10:48:00;;;;;;;3.70;2.63;;;;;;;13.13;35.33;94632.69;5030842;28;20509;-51
2022/04/18 10:50:39;;;;;;;4.57;2.00;;;;;;;13.28;34.42;94623.84;5030708;28;20450;-55
2022/04/18 10:53:17;;;;;;;3.30;2.40;;;;;;;13.39;35.37;94620.84;5030777;28;20479;-54
2022/04/18 10:55:56;;;;;;;3.30;2.33;;;;;;;13.39;34.56;94620.06;5030415;28;20452;-51
2022/04/18 10:58:36;;;;;;;3.30;2.30;;;;;;;13.42;33.93;94615.03;5030523;28;20470;-56
2022/04/18 11:01:08;;;;;;;3.70;3.10;;;;;;;13.38;34.86;94614.00;5030507;28;20528;-57
2022/04/18 11:03:39;;;;;;;5.50;3.27;;;;;;;13.63;34.17;94611.09;5030870;28;20439;-55
2022/04/18 11:06:15;;;;;;;5.00;3.20;;;;;;;13.47;33.75;94614.97;5030782;28;20570;-54
2022/04/18 11:08:57;;;;;;;3.70;2.50;;;;;;;13.43;33.62;94610.56;5030507;28;20454;-51
2022/04/18 11:11:24;;;;;;;4.57;1.70;;;;;;;13.51;33.14;94612.56;5030091;28;20495;-51
2022/04/18 11:13:51;;;;;;;2.63;2.33;;;;;;;13.55;33.24;94603.84;5030267;28;20455;-56
2022/04/18 11:16:26;;;;;;;3.90;2.33;;;;;;;13.79;33.35;94606.44;5030187;28;20490;-55
2022/04/18 11:19:06;;;;;;;3.13;2.40;;;;;;;14.00;33.35;94599.84;5030281;28;20856;-52
2022/04/18 11:24:54;;;;;;;2.53;1.83;;;;;;;13.62;32.80;94598.22;5030207;28;20439;-53
2022/04/18 11:27:25;;;;;;;1.97;1.57;;;;;;;13.81;32.86;94599.81;5030517;28;20447;-55
2022/04/18 11:29:56;;;;;;;4.00;1.60;;;;;;;13.79;32.26;94594.09;5030029;28;20436;-56
2022/04/18 11:32:31;;;;;;;2.37;1.80;;;;;;;14.10;32.03;94599.75;5030087;28;20856;-56
2022/04/18 11:35:00;;;;;;;2.57;2.10;;;;;;;14.02;32.57;94597.72;5029712;28;20457;-58
2022/04/18 11:37:33;;;;;;;4.63;3.00;;;;;;;13.88;33.12;94607.41;5030087;28;20443;-52
2022/04/18 11:40:05;;;;;;;5.70;4.03;;;;;;;13.47;34.15;94595.75;5029690;28;20448;-57
2022/04/18 11:42:33;;;;;;;4.97;2.90;;;;;;;13.53;34.47;94594.63;5030595;28;20467;-57
2022/04/18 11:45:07;;;;;;;4.60;3.20;;;;;;;13.29;34.95;94599.09;5029984;28;20443;-55
2022/04/18 11:47:40;;;;;;;7.70;5.10;;;;;;;13.52;34.88;94595.72;5030381;28;20439;-54
2022/04/18 11:50:09;;;;;;;7.70;6.07;;;;;;;13.64;34.16;94593.47;5029319;28;20455;-55
2022/04/18 11:52:38;;;;;;;13.10;11.13;;;;;;;13.28;35.03;94598.34;5029757;28;20541;-56
2022/04/18 11:55:14;;;;;;;6.33;5.43;;;;;;;13.47;34.85;94590.47;5029830;28;20443;-54
2022/04/18 11:57:44;;;;;;;8.40;5.17;;;;;;;13.52;34.78;94596.47;5029571;28;20455;-54
2022/04/18 12:00:13;;;;;;;7.17;4.77;;;;;;;13.83;33.99;94594.28;5029211;28;20463;-52
2022/04/18 12:08:18;;;;;;;6.57;4.80;;;;;;;14.10;33.47;94578.66;5029450;28;20455;-54
2022/04/18 12:10:46;;;;;;;5.00;3.37;;;;;;;13.87;33.33;94580.28;5029056;28;21063;-56
2022/04/18 12:13:14;;;;;;;2.83;2.30;;;;;;;14.17;32.88;94576.44;5029928;28;20483;-55
2022/04/18 12:15:43;;;;;;;2.50;2.30;;;;;;;14.33;32.46;94571.75;5029706;28;20435;-54
2022/04/18 12:18:17;;;;;;;7.00;2.40;;;;;;;14.37;32.36;94570.13;5028733;28;20876;-55
2022/04/18 12:20:50;;;;;;;4.80;2.10;;;;;;;14.36;33.28;94561.44;5029465;28;20444;-52
2022/04/18 12:23:22;;;;;;;3.43;1.60;;;;;;;14.63;32.28;94566.84;5029571;28;20452;-57
2022/04/18 12:25:51;;;;;;;2.27;1.57;;;;;;;14.19;32.92;94561.16;5028936;28;20429;-58
2022/04/18 12:28:24;;;;;;;1.87;1.60;;;;;;;14.35;32.29;94562.50;5029536;28;20436;-54